Time;durP1;ratioP1;P1;durP2;ratioP2;P2;SDS_P1;SDS_P2;PMS_P1;PMS_P2;Temp;Humidity;BMP_temperature;BMP_pressure;BME280_temperature;BME280_humidity;BME280_pressure;Samples;Min_cycle;Max_cycle;Signal;HPM_P1;HPM_P2
2021/08/21 00:00:43;;;;;;;;;;;;;;;;;;5047181;28;19925;-71
2021/08/21 00:03:10;;;;;;;;;;;;;;;;;;5044839;28;20009;-72
2021/08/21 00:05:37;;;;;;;;;;;;;;;;;;5048177;28;19925;-71
2021/08/21 00:08:04;;;;;;;;;;;;;;;;;;5046557;28;19925;-72
2021/08/21 00:10:31;;;;;;;;;;;;;;;;;;5044926;28;19951;-72
2021/08/21 00:12:58;;;;;;;;;;;;;;;;;;5045770;28;19947;-72
2021/08/21 00:15:25;;;;;;;;;;;;;;;;;;5047832;28;20345;-72
2021/08/21 00:17:52;;;;;;;;;;;;;;;;;;5047125;28;19935;-70
2021/08/21 00:20:19;;;;;;;;;;;;;;;;;;5047949;28;20385;-72
2021/08/21 00:22:46;;;;;;;;;;;;;;;;;;5047292;28;19932;-72
2021/08/21 00:25:13;;;;;;;;;;;;;;;;;;5050164;28;20393;-71
2021/08/21 00:27:40;;;;;;;;;;;;;;;;;;5050436;28;19924;-72
2021/08/21 00:30:07;;;;;;;;;;;;;;;;;;5047465;28;19925;-72
2021/08/21 00:32:34;;;;;;;;;;;;;;;;;;5046983;28;19925;-71
2021/08/21 00:35:01;;;;;;;;;;;;;;;;;;5046874;28;19935;-72
2021/08/21 00:37:28;;;;;;;;;;;;;;;;;;5050214;28;19968;-72
2021/08/21 00:39:55;;;;;;;;;;;;;;;;;;5047936;28;20264;-73
2021/08/21 00:42:22;;;;;;;;;;;;;;;;;;5049137;28;19924;-73
2021/08/21 00:44:49;;;;;;;;;;;;;;;;;;5045908;28;20040;-72
2021/08/21 00:47:16;;;;;;;;;;;;;;;;;;5049773;28;19929;-73
2021/08/21 00:49:43;;;;;;;;;;;;;;;;;;5053485;28;19931;-73
2021/08/21 00:52:10;;;;;;;;;;;;;;;;;;5048727;28;20473;-73
2021/08/21 00:54:40;;;;;;;;;;;;;;;;;;5053547;28;19924;-72
2021/08/21 00:57:07;;;;;;;;;;;;;;;;;;5050729;28;19924;-72
2021/08/21 00:59:33;;;;;;;;;;;;;;;;;;5052923;28;19928;-72
2021/08/21 01:02:00;;;;;;;;;;;;;;;;;;5049742;28;20270;-72
2021/08/21 01:04:27;;;;;;;;;;;;;;;;;;5051223;28;19931;-72
2021/08/21 01:06:54;;;;;;;;;;;;;;;;;;5049081;28;19924;-71
2021/08/21 01:09:21;;;;;;;;;;;;;;;;;;5051345;28;19932;-72
2021/08/21 01:11:48;;;;;;;;;;;;;;;;;;5053330;28;20021;-71
2021/08/21 01:14:15;;;;;;;;;;;;;;;;;;5051772;28;19924;-71
2021/08/21 01:16:42;;;;;;;;;;;;;;;;;;5053625;28;20303;-72
2021/08/21 01:19:09;;;;;;;;;;;;;;;;;;5052946;28;19980;-73
2021/08/21 01:21:36;;;;;;;;;;;;;;;;;;5050246;28;19932;-71
2021/08/21 01:24:03;;;;;;;;;;;;;;;;;;5052247;28;20353;-72
2021/08/21 01:26:30;;;;;;;;;;;;;;;;;;5055493;28;19925;-73
2021/08/21 01:28:57;;;;;;;;;;;;;;;;;;5051244;28;19929;-71
2021/08/21 01:31:24;;;;;;;;;;;;;;;;;;5050490;28;20012;-71
2021/08/21 01:33:53;;;;;;;;;;;;;;;;;;5047076;28;19935;-71
2021/08/21 01:36:20;;;;;;;;;;;;;;;;;;5047454;28;19931;-72
2021/08/21 01:38:49;;;;;;;;;;;;;;;;;;5047669;28;19929;-70
2021/08/21 01:41:16;;;;;;;;;;;;;;;;;;5049748;28;19978;-72
2021/08/21 01:43:42;;;;;;;;;;;;;;;;;;5050741;28;19935;-72
2021/08/21 01:46:10;;;;;;;;;;;;;;;;;;5050263;28;20415;-72
2021/08/21 01:48:37;;;;;;;;;;;;;;;;;;5049016;28;19929;-73
2021/08/21 01:51:03;;;;;;;;;;;;;;;;;;5049646;28;20358;-71
2021/08/21 01:53:31;;;;;;;;;;;;;;;;;;5049875;28;19925;-72
2021/08/21 01:55:57;;;;;;;;;;;;;;;;;;5048337;28;20281;-72
2021/08/21 01:58:24;;;;;;;;;;;;;;;;;;5049224;28;19931;-71
2021/08/21 02:00:51;;;;;;;;;;;;;;;;;;5050063;28;19933;-71
2021/08/21 02:03:18;;;;;;;;;;;;;;;;;;5049735;28;20407;-71
2021/08/21 02:05:45;;;;;;;;;;;;;;;;;;5050647;28;19931;-72
2021/08/21 02:08:12;;;;;;;;;;;;;;;;;;5049606;28;19940;-71
2021/08/21 02:10:39;;;;;;;;;;;;;;;;;;5048827;28;19939;-71
2021/08/21 02:13:06;;;;;;;;;;;;;;;;;;5049734;28;19931;-71
2021/08/21 02:15:33;;;;;;;;;;;;;;;;;;5049257;28;19932;-72
2021/08/21 02:18:00;;;;;;;;;;;;;;;;;;5053457;28;20331;-72
2021/08/21 02:20:27;;;;;;;;;;;;;;;;;;5056485;28;20052;-72
2021/08/21 02:22:54;;;;;;;;;;;;;;;;;;5050622;28;19955;-72
2021/08/21 02:25:21;;;;;;;;;;;;;;;;;;5045200;28;19939;-72
2021/08/21 02:27:57;;;;;;;;;;;;;;;;;;5051165;28;19931;-71
2021/08/21 02:30:24;;;;;;;;;;;;;;;;;;5050419;28;19944;-71
2021/08/21 02:32:51;;;;;;;;;;;;;;;;;;5048871;28;20406;-72
2021/08/21 02:35:18;;;;;;;;;;;;;;;;;;5049900;28;19925;-71
2021/08/21 02:37:45;;;;;;;;;;;;;;;;;;5049596;28;19925;-71
2021/08/21 02:40:12;;;;;;;;;;;;;;;;;;5047210;28;19937;-71
2021/08/21 02:42:39;;;;;;;;;;;;;;;;;;5048374;28;19931;-71
2021/08/21 02:45:06;;;;;;;;;;;;;;;;;;5050858;28;19947;-71
2021/08/21 02:47:33;;;;;;;;;;;;;;;;;;5049651;28;19971;-71
2021/08/21 02:50:00;;;;;;;;;;;;;;;;;;5047994;28;19936;-71
2021/08/21 02:52:27;;;;;;;;;;;;;;;;;;5050131;28;20024;-72
2021/08/21 02:54:54;;;;;;;;;;;;;;;;;;5048887;28;20020;-72
2021/08/21 02:57:21;;;;;;;;;;;;;;;;;;5048981;28;19925;-71
2021/08/21 02:59:48;;;;;;;;;;;;;;;;;;5049306;28;20315;-71
2021/08/21 03:02:15;;;;;;;;;;;;;;;;;;5048634;28;19955;-70
2021/08/21 03:04:42;;;;;;;;;;;;;;;;;;5044632;28;19925;-71
2021/08/21 03:07:09;;;;;;;;;;;;;;;;;;5049048;28;19928;-70
2021/08/21 03:09:36;;;;;;;;;;;;;;;;;;5050672;28;19968;-72
2021/08/21 03:12:03;;;;;;;;;;;;;;;;;;5047556;28;20031;-72
2021/08/21 03:14:30;;;;;;;;;;;;;;;;;;5048657;28;19972;-72
2021/08/21 03:16:57;;;;;;;;;;;;;;;;;;5049648;28;19933;-72
2021/08/21 03:19:24;;;;;;;;;;;;;;;;;;5046750;28;19945;-72
2021/08/21 03:21:51;;;;;;;;;;;;;;;;;;5049508;28;19932;-71
2021/08/21 03:24:18;;;;;;;;;;;;;;;;;;5047097;28;19924;-71
2021/08/21 03:26:45;;;;;;;;;;;;;;;;;;5049574;28;19929;-72
2021/08/21 03:29:12;;;;;;;;;;;;;;;;;;5046702;28;19935;-72
2021/08/21 03:31:39;;;;;;;;;;;;;;;;;;5049319;28;19935;-71
2021/08/21 03:34:06;;;;;;;;;;;;;;;;;;5045947;28;19925;-72
2021/08/21 03:36:33;;;;;;;;;;;;;;;;;;5049569;28;19980;-72
2021/08/21 03:39:00;;;;;;;;;;;;;;;;;;5045669;28;20269;-71
2021/08/21 03:41:27;;;;;;;;;;;;;;;;;;5066332;22;21201;-66
2021/08/21 03:43:54;;;;;;;;;;;;;;;;;;5032251;28;19933;-66
2021/08/21 03:46:21;;;;;;;;;;;;;;;;;;5033973;28;19925;-66
2021/08/21 03:48:48;;;;;;;;;;;;;;;;;;5032630;28;19925;-67
2021/08/21 03:51:15;;;;;;;;;;;;;;;;;;5035891;28;20400;-66
2021/08/21 03:53:42;;;;;;;;;;;;;;;;;;5022647;28;20317;-66
2021/08/21 03:56:09;;;;;;;;;;;;;;;;;;5025549;28;20301;-66
2021/08/21 03:58:35;;;;;;;;;;;;;;;;;;5031516;28;20715;-66
2021/08/21 04:01:02;;;;;;;;;;;;;;;;;;5025207;28;20692;-66
2021/08/21 04:03:29;;;;;;;;;;;;;;;;;;5023590;28;19981;-67
2021/08/21 04:05:56;;;;;;;;;;;;;;;;;;5023906;28;19947;-67
2021/08/21 04:08:23;;;;;;;;;;;;;;;;;;5023748;28;20412;-66
2021/08/21 04:10:50;;;;;;;;;;;;;;;;;;5026064;28;20297;-66
2021/08/21 04:13:17;;;;;;;;;;;;;;;;;;5021405;28;19935;-66
2021/08/21 04:15:44;;;;;;;;;;;;;;;;;;5024623;28;19929;-66
2021/08/21 04:18:11;;;;;;;;;;;;;;;;;;5023702;28;19926;-68
2021/08/21 04:20:38;;;;;;;;;;;;;;;;;;5025395;28;19932;-67
2021/08/21 04:23:05;;;;;;;;;;;;;;;;;;5023854;28;19925;-66
2021/08/21 04:25:32;;;;;;;;;;;;;;;;;;5030453;28;19925;-66
2021/08/21 04:27:59;;;;;;;;;;;;;;;;;;5032668;28;19936;-67
2021/08/21 04:30:26;;;;;;;;;;;;;;;;;;5027715;28;19933;-66
2021/08/21 04:32:53;;;;;;;;;;;;;;;;;;5030642;28;19932;-66
2021/08/21 04:35:20;;;;;;;;;;;;;;;;;;5029866;28;19929;-66
2021/08/21 04:37:47;;;;;;;;;;;;;;;;;;5030952;28;20408;-66
2021/08/21 04:40:14;;;;;;;;;;;;;;;;;;5036568;28;20257;-66
2021/08/21 04:42:41;;;;;;;;;;;;;;;;;;5030500;28;20546;-66
2021/08/21 04:45:08;;;;;;;;;;;;;;;;;;5030744;28;19933;-66
2021/08/21 04:47:35;;;;;;;;;;;;;;;;;;5030790;28;20424;-66
2021/08/21 04:50:03;;;;;;;;;;;;;;;;;;5031266;28;19925;-66
2021/08/21 04:52:30;;;;;;;;;;;;;;;;;;5028640;28;20020;-66
2021/08/21 04:54:57;;;;;;;;;;;;;;;;;;5028126;28;20373;-67
2021/08/21 04:57:24;;;;;;;;;;;;;;;;;;5024561;28;19952;-66
2021/08/21 04:59:51;;;;;;;;;;;;;;;;;;5026895;28;20385;-66
2021/08/21 05:02:18;;;;;;;;;;;;;;;;;;5027213;28;19931;-67
2021/08/21 05:04:45;;;;;;;;;;;;;;;;;;5022124;28;20321;-67
2021/08/21 05:07:12;;;;;;;;;;;;;;;;;;5025842;28;19940;-66
2021/08/21 05:09:38;;;;;;;;;;;;;;;;;;5027875;28;19936;-66
2021/08/21 05:12:05;;;;;;;;;;;;;;;;;;5024303;28;19925;-66
2021/08/21 05:14:32;;;;;;;;;;;;;;;;;;5023288;28;19929;-65
2021/08/21 05:16:59;;;;;;;;;;;;;;;;;;5028054;28;19931;-66
2021/08/21 05:19:31;;;;;;;;;;;;;;;;;;5028065;28;19930;-66
2021/08/21 05:22:09;;;;;;;;;;;;;;;;;;5027092;28;19925;-66
2021/08/21 05:24:36;;;;;;;;;;;;;;;;;;5028320;28;19933;-66
2021/08/21 05:27:03;;;;;;;;;;;;;;;;;;5028565;28;19925;-66
2021/08/21 05:29:30;;;;;;;;;;;;;;;;;;5030664;28;19959;-66
2021/08/21 05:31:57;;;;;;;;;;;;;;;;;;5032355;28;20304;-66
2021/08/21 05:34:24;;;;;;;;;;;;;;;;;;5031117;28;20013;-66
2021/08/21 05:36:51;;;;;;;;;;;;;;;;;;5032578;28;19925;-66
2021/08/21 05:39:18;;;;;;;;;;;;;;;;;;5027679;28;19932;-66
2021/08/21 05:41:45;;;;;;;;;;;;;;;;;;5026253;28;19933;-66
2021/08/21 05:44:11;;;;;;;;;;;;;;;;;;5025090;28;19926;-66
2021/08/21 05:46:38;;;;;;;;;;;;;;;;;;5026728;28;20297;-66
2021/08/21 05:49:05;;;;;;;;;;;;;;;;;;5026829;28;20300;-66
2021/08/21 05:51:32;;;;;;;;;;;;;;;;;;5030076;28;20281;-66
2021/08/21 05:53:59;;;;;;;;;;;;;;;;;;5024571;28;20324;-66
2021/08/21 05:56:26;;;;;;;;;;;;;;;;;;5028165;28;19929;-66
2021/08/21 05:58:53;;;;;;;;;;;;;;;;;;5027008;28;19932;-65
2021/08/21 06:01:20;;;;;;;;;;;;;;;;;;5026628;28;19929;-66
2021/08/21 06:03:47;;;;;;;;;;;;;;;;;;5026018;28;19925;-65
2021/08/21 06:06:14;;;;;;;;;;;;;;;;;;5027420;28;19936;-65
2021/08/21 06:08:41;;;;;;;;;;;;;;;;;;5025756;28;19936;-65
2021/08/21 06:11:08;;;;;;;;;;;;;;;;;;5022273;28;20301;-65
2021/08/21 06:13:35;;;;;;;;;;;;;;;;;;5025698;28;19936;-65
2021/08/21 06:16:02;;;;;;;;;;;;;;;;;;5025275;28;20028;-65
2021/08/21 06:18:29;;;;;;;;;;;;;;;;;;5021259;28;19925;-65
2021/08/21 06:20:56;;;;;;;;;;;;;;;;;;5024913;28;19947;-65
2021/08/21 06:23:23;;;;;;;;;;;;;;;;;;5027018;28;19925;-66
2021/08/21 06:25:50;;;;;;;;;;;;;;;;;;5025364;28;20227;-65
2021/08/21 06:28:17;;;;;;;;;;;;;;;;;;5022261;28;20401;-65
2021/08/21 06:30:44;;;;;;;;;;;;;;;;;;5025035;28;19933;-65
2021/08/21 06:33:11;;;;;;;;;;;;;;;;;;5025147;28;19929;-65
2021/08/21 06:35:38;;;;;;;;;;;;;;;;;;5022250;28;21067;-66
2021/08/21 06:38:05;;;;;;;;;;;;;;;;;;5024158;28;19933;-66
2021/08/21 06:40:32;;;;;;;;;;;;;;;;;;5025194;28;20335;-65
2021/08/21 06:42:59;;;;;;;;;;;;;;;;;;5022767;28;19925;-66
2021/08/21 06:45:26;;;;;;;;;;;;;;;;;;5021703;28;19929;-66
2021/08/21 06:47:55;;;;;;;;;;;;;;;;;;5026174;28;20298;-66
2021/08/21 06:50:22;;;;;;;;;;;;;;;;;;5028319;28;19925;-66
2021/08/21 06:52:51;;;;;;;;;;;;;;;;;;5026795;28;19951;-66
2021/08/21 06:55:18;;;;;;;;;;;;;;;;;;5028179;28;19931;-66
2021/08/21 06:57:45;;;;;;;;;;;;;;;;;;5027781;28;19933;-66
2021/08/21 07:00:12;;;;;;;;;;;;;;;;;;5030993;28;19943;-67
2021/08/21 07:02:39;;;;;;;;;;;;;;;;;;5030527;28;20200;-67
2021/08/21 07:05:06;;;;;;;;;;;;;;;;;;5028841;28;19925;-67
2021/08/21 07:07:33;;;;;;;;;;;;;;;;;;5028140;28;19933;-67
2021/08/21 07:09:59;;;;;;;;;;;;;;;;;;5028397;28;20381;-67
2021/08/21 07:12:26;;;;;;;;;;;;;;;;;;5028188;28;19936;-67
2021/08/21 07:14:53;;;;;;;;;;;;;;;;;;5027963;28;19932;-67
2021/08/21 07:17:20;;;;;;;;;;;;;;;;;;5028995;28;19933;-67
2021/08/21 07:19:47;;;;;;;;;;;;;;;;;;5025820;28;19932;-66
2021/08/21 07:22:14;;;;;;;;;;;;;;;;;;5029647;28;19925;-66
2021/08/21 07:24:41;;;;;;;;;;;;;;;;;;5028826;28;19956;-66
2021/08/21 07:27:08;;;;;;;;;;;;;;;;;;5029970;28;19929;-66
2021/08/21 07:29:35;;;;;;;;;;;;;;;;;;5026395;28;19929;-67
2021/08/21 07:32:02;;;;;;;;;;;;;;;;;;5027346;28;19925;-67
2021/08/21 07:34:29;;;;;;;;;;;;;;;;;;5028902;28;19948;-67
2021/08/21 07:36:56;;;;;;;;;;;;;;;;;;5027213;28;19933;-66
2021/08/21 07:39:23;;;;;;;;;;;;;;;;;;5027981;28;20415;-66
2021/08/21 07:41:50;;;;;;;;;;;;;;;;;;5024185;28;19925;-67
2021/08/21 07:44:17;;;;;;;;;;;;;;;;;;5025430;28;19933;-67
2021/08/21 07:46:44;;;;;;;;;;;;;;;;;;5027721;28;19933;-67
2021/08/21 07:49:11;;;;;;;;;;;;;;;;;;5029766;28;19940;-67
2021/08/21 07:51:38;;;;;;;;;;;;;;;;;;5026022;28;20274;-69
2021/08/21 07:54:05;;;;;;;;;;;;;;;;;;5020736;28;19925;-66
2021/08/21 07:56:32;;;;;;;;;;;;;;;;;;5024826;28;19926;-67
2021/08/21 07:59:06;;;;;;;;;;;;;;;;;;5028310;28;20012;-67
2021/08/21 08:01:33;;;;;;;;;;;;;;;;;;5025745;28;20064;-67
2021/08/21 08:04:00;;;;;;;;;;;;;;;;;;5028610;28;19944;-67
2021/08/21 08:06:27;;;;;;;;;;;;;;;;;;5024405;28;19925;-67
2021/08/21 08:08:54;;;;;;;;;;;;;;;;;;5022180;28;19929;-67
2021/08/21 08:11:21;;;;;;;;;;;;;;;;;;5025463;28;19944;-68
2021/08/21 08:13:48;;;;;;;;;;;;;;;;;;5021035;28;19926;-67
2021/08/21 08:16:15;;;;;;;;;;;;;;;;;;5026329;28;19926;-67
2021/08/21 08:18:42;;;;;;;;;;;;;;;;;;5023423;28;19951;-67
2021/08/21 08:21:09;;;;;;;;;;;;;;;;;;5026026;28;20381;-67
2021/08/21 08:23:36;;;;;;;;;;;;;;;;;;5022664;28;19925;-67
2021/08/21 08:26:03;;;;;;;;;;;;;;;;;;5024556;28;20050;-67
2021/08/21 08:28:30;;;;;;;;;;;;;;;;;;5026527;28;20286;-67
2021/08/21 08:30:57;;;;;;;;;;;;;;;;;;5022665;28;19931;-67
2021/08/21 08:33:24;;;;;;;;;;;;;;;;;;5027380;28;20292;-67
2021/08/21 08:35:51;;;;;;;;;;;;;;;;;;5021820;28;19925;-67
2021/08/21 08:38:18;;;;;;;;;;;;;;;;;;5025418;28;19933;-66
2021/08/21 08:40:45;;;;;;;;;;;;;;;;;;5024842;28;20137;-66
2021/08/21 08:43:12;;;;;;;;;;;;;;;;;;5030272;28;19926;-65
2021/08/21 08:45:39;;;;;;;;;;;;;;;;;;5026694;28;19925;-65
2021/08/21 08:48:06;;;;;;;;;;;;;;;;;;5027363;28;20441;-66
2021/08/21 08:50:33;;;;;;;;;;;;;;;;;;5029936;28;19925;-66
2021/08/21 08:53:00;;;;;;;;;;;;;;;;;;5025424;28;19931;-66
2021/08/21 08:55:27;;;;;;;;;;;;;;;;;;5024095;28;19926;-66
2021/08/21 08:57:54;;;;;;;;;;;;;;;;;;5028184;28;19925;-66
2021/08/21 09:00:21;;;;;;;;;;;;;;;;;;5025997;28;19939;-65
2021/08/21 09:02:48;;;;;;;;;;;;;;;;;;5024595;28;20317;-66
2021/08/21 09:05:15;;;;;;;;;;;;;;;;;;5029540;28;19931;-66
2021/08/21 09:07:42;;;;;;;;;;;;;;;;;;5024766;28;19929;-66
2021/08/21 09:10:08;;;;;;;;;;;;;;;;;;5029985;28;19929;-65
2021/08/21 09:12:35;;;;;;;;;;;;;;;;;;5029604;28;19931;-66
2021/08/21 09:15:02;;;;;;;;;;;;;;;;;;5032495;28;20334;-66
2021/08/21 09:17:29;;;;;;;;;;;;;;;;;;5029427;28;19925;-66
2021/08/21 09:19:56;;;;;;;;;;;;;;;;;;5029045;28;19925;-65
2021/08/21 09:22:23;;;;;;;;;;;;;;;;;;5027024;28;20153;-66
2021/08/21 09:24:50;;;;;;;;;;;;;;;;;;5031606;28;20609;-66
2021/08/21 09:27:17;;;;;;;;;;;;;;;;;;5028285;28;19951;-66
2021/08/21 09:29:44;;;;;;;;;;;;;;;;;;5022136;28;19933;-66
2021/08/21 09:32:11;;;;;;;;;;;;;;;;;;5024236;28;19929;-65
2021/08/21 09:34:38;;;;;;;;;;;;;;;;;;5022331;28;20249;-66
2021/08/21 09:37:05;;;;;;;;;;;;;;;;;;5024311;28;19932;-66
2021/08/21 09:39:32;;;;;;;;;;;;;;;;;;5022161;28;19933;-66
2021/08/21 09:41:59;;;;;;;;;;;;;;;;;;5032370;28;19948;-66
2021/08/21 09:44:26;;;;;;;;;;;;;;;;;;5028215;28;19925;-65
2021/08/21 09:46:53;;;;;;;;;;;;;;;;;;5030937;28;20293;-64
2021/08/21 09:49:20;;;;;;;;;;;;;;;;;;5030371;28;19925;-66
2021/08/21 09:51:47;;;;;;;;;;;;;;;;;;5021629;28;19925;-66
2021/08/21 09:54:14;;;;;;;;;;;;;;;;;;5027060;28;20337;-66
2021/08/21 09:56:41;;;;;;;;;;;;;;;;;;5015607;28;19933;-66
2021/08/21 09:59:08;;;;;;;;;;;;;;;;;;5017412;28;19929;-66
2021/08/21 10:01:35;;;;;;;;;;;;;;;;;;5016869;28;20305;-66
2021/08/21 10:04:02;;;;;;;;;;;;;;;;;;5019202;28;19936;-66
2021/08/21 10:06:29;;;;;;;;;;;;;;;;;;5019048;28;19930;-66
2021/08/21 10:08:59;;;;;;;;;;;;;;;;;;5018466;28;20407;-66
2021/08/21 10:11:26;;;;;;;;;;;;;;;;;;5016456;28;19929;-66
2021/08/21 10:13:53;;;;;;;;;;;;;;;;;;5018983;28;19925;-66
2021/08/21 10:16:20;;;;;;;;;;;;;;;;;;5019869;28;19925;-66
2021/08/21 10:18:47;;;;;;;;;;;;;;;;;;5023804;28;20297;-66
2021/08/21 10:21:14;;;;;;;;;;;;;;;;;;5024114;28;20109;-67
2021/08/21 10:23:41;;;;;;;;;;;;;;;;;;5026995;28;19939;-67
2021/08/21 10:26:10;;;;;;;;;;;;;;;;;;5025002;28;19936;-65
2021/08/21 10:28:37;;;;;;;;;;;;;;;;;;5030230;28;19933;-66
2021/08/21 10:31:04;;;;;;;;;;;;;;;;;;5027810;28;19925;-66
2021/08/21 10:33:31;;;;;;;;;;;;;;;;;;5024572;28;19933;-67
2021/08/21 10:35:59;;;;;;;;;;;;;;;;;;5026044;28;19933;-67
2021/08/21 10:38:26;;;;;;;;;;;;;;;;;;5027303;28;19965;-66
2021/08/21 10:40:52;;;;;;;;;;;;;;;;;;5029497;28;19925;-66
2021/08/21 10:43:19;;;;;;;;;;;;;;;;;;5026783;28;19925;-66
2021/08/21 10:45:47;;;;;;;;;;;;;;;;;;5025215;28;20118;-66
2021/08/21 10:48:14;;;;;;;;;;;;;;;;;;5029382;28;19929;-66
2021/08/21 10:50:41;;;;;;;;;;;;;;;;;;5025178;28;19925;-66
2021/08/21 10:53:11;;;;;;;;;;;;;;;;;;5022028;28;19929;-66
2021/08/21 10:55:38;;;;;;;;;;;;;;;;;;5030709;28;19971;-66
2021/08/21 10:58:05;;;;;;;;;;;;;;;;;;5027515;28;19932;-67
2021/08/21 11:00:34;;;;;;;;;;;;;;;;;;5027889;28;19935;-66
2021/08/21 11:03:04;;;;;;;;;;;;;;;;;;5023807;28;19936;-66
2021/08/21 11:05:31;;;;;;;;;;;;;;;;;;5024080;28;19925;-66
2021/08/21 11:07:58;;;;;;;;;;;;;;;;;;5028581;28;19932;-66
2021/08/21 11:10:26;;;;;;;;;;;;;;;;;;5025163;28;19931;-66
2021/08/21 11:12:55;;;;;;;;;;;;;;;;;;5024456;28;19929;-66
2021/08/21 11:15:22;;;;;;;;;;;;;;;;;;5026012;28;20325;-66
2021/08/21 11:17:49;;;;;;;;;;;;;;;;;;5027922;28;19932;-67
2021/08/21 11:20:16;;;;;;;;;;;;;;;;;;5028387;28;19929;-66
2021/08/21 11:22:43;;;;;;;;;;;;;;;;;;5026968;28;19932;-67
2021/08/21 11:25:10;;;;;;;;;;;;;;;;;;5028620;28;19979;-65
2021/08/21 11:27:37;;;;;;;;;;;;;;;;;;5026822;28;19933;-66
2021/08/21 11:30:04;;;;;;;;;;;;;;;;;;5032262;28;20197;-66
2021/08/21 11:32:31;;;;;;;;;;;;;;;;;;5031720;28;19925;-66
2021/08/21 11:34:57;;;;;;;;;;;;;;;;;;5031913;28;20032;-66
2021/08/21 11:37:25;;;;;;;;;;;;;;;;;;5028184;28;19933;-65
2021/08/21 11:39:52;;;;;;;;;;;;;;;;;;5029298;28;20222;-65
2021/08/21 11:42:19;;;;;;;;;;;;;;;;;;5023404;28;19931;-66
2021/08/21 11:44:46;;;;;;;;;;;;;;;;;;5027905;28;19937;-66
2021/08/21 11:47:13;;;;;;;;;;;;;;;;;;5027904;28;19932;-66
2021/08/21 11:49:40;;;;;;;;;;;;;;;;;;5027899;28;19925;-65
2021/08/21 11:52:07;;;;;;;;;;;;;;;;;;5027713;28;19925;-66
2021/08/21 11:54:34;;;;;;;;;;;;;;;;;;5029019;28;19932;-65
2021/08/21 11:57:01;;;;;;;;;;;;;;;;;;5030012;28;19924;-66
2021/08/21 11:59:28;;;;;;;;;;;;;;;;;;5023762;28;20004;-65
2021/08/21 12:01:55;;;;;;;;;;;;;;;;;;5024568;28;19925;-65
2021/08/21 12:04:23;;;;;;;;;;;;;;;;;;5026380;28;19933;-65
2021/08/21 12:06:50;;;;;;;;;;;;;;;;;;5026178;28;19925;-66
2021/08/21 12:09:17;;;;;;;;;;;;;;;;;;5026757;28;19925;-65
2021/08/21 12:11:44;;;;;;;;;;;;;;;;;;5026114;28;19926;-65
2021/08/21 12:14:11;;;;;;;;;;;;;;;;;;5027600;28;19979;-65
2021/08/21 12:16:37;;;;;;;;;;;;;;;;;;5028666;28;19936;-66
2021/08/21 12:19:04;;;;;;;;;;;;;;;;;;5028560;28;20397;-65
2021/08/21 12:21:31;;;;;;;;;;;;;;;;;;5027136;28;20297;-66
2021/08/21 12:23:58;;;;;;;;;;;;;;;;;;5029810;28;19968;-66
2021/08/21 12:26:25;;;;;;;;;;;;;;;;;;5027744;28;20316;-65
2021/08/21 12:28:52;;;;;;;;;;;;;;;;;;5026457;28;19925;-65
2021/08/21 12:31:19;;;;;;;;;;;;;;;;;;5029247;28;19931;-65
2021/08/21 12:33:49;;;;;;;;;;;;;;;;;;5026969;28;20370;-65
2021/08/21 12:36:16;;;;;;;;;;;;;;;;;;5027363;28;20020;-65
2021/08/21 12:38:43;;;;;;;;;;;;;;;;;;5026778;28;19925;-65
2021/08/21 12:41:10;;;;;;;;;;;;;;;;;;5027744;28;19940;-65
2021/08/21 12:43:39;;;;;;;;;;;;;;;;;;5026454;28;19929;-65
2021/08/21 12:46:06;;;;;;;;;;;;;;;;;;5028888;28;19925;-65
2021/08/21 12:48:33;;;;;;;;;;;;;;;;;;5031678;28;20293;-65
2021/08/21 12:51:00;;;;;;;;;;;;;;;;;;5030762;28;20012;-66
2021/08/21 12:53:26;;;;;;;;;;;;;;;;;;5029034;28;19931;-65
2021/08/21 12:55:53;;;;;;;;;;;;;;;;;;5026478;28;20349;-65
2021/08/21 12:58:20;;;;;;;;;;;;;;;;;;5030803;28;19929;-66
2021/08/21 13:00:47;;;;;;;;;;;;;;;;;;5031044;28;19925;-65
2021/08/21 13:03:14;;;;;;;;;;;;;;;;;;5031025;28;19935;-65
2021/08/21 13:05:41;;;;;;;;;;;;;;;;;;5028924;28;20098;-66
2021/08/21 13:08:08;;;;;;;;;;;;;;;;;;5031630;28;20020;-65
2021/08/21 13:10:37;;;;;;;;;;;;;;;;;;5030874;28;20351;-66
2021/08/21 13:13:04;;;;;;;;;;;;;;;;;;5030324;28;19975;-66
2021/08/21 13:15:31;;;;;;;;;;;;;;;;;;5030638;28;19932;-67
2021/08/21 13:17:59;;;;;;;;;;;;;;;;;;5031333;28;19925;-66
2021/08/21 13:20:26;;;;;;;;;;;;;;;;;;5030506;28;20393;-66
2021/08/21 13:22:54;;;;;;;;;;;;;;;;;;5031965;28;19925;-65
2021/08/21 13:25:21;;;;;;;;;;;;;;;;;;5028696;28;19925;-66
2021/08/21 13:27:48;;;;;;;;;;;;;;;;;;5031409;28;19925;-66
2021/08/21 13:30:15;;;;;;;;;;;;;;;;;;5030564;28;19932;-65
2021/08/21 13:32:42;;;;;;;;;;;;;;;;;;5030045;28;19933;-65
2021/08/21 13:35:09;;;;;;;;;;;;;;;;;;5032312;28;20385;-66
2021/08/21 13:37:36;;;;;;;;;;;;;;;;;;5030039;28;19935;-65
2021/08/21 13:40:03;;;;;;;;;;;;;;;;;;5029845;28;19932;-65
2021/08/21 13:42:30;;;;;;;;;;;;;;;;;;5031320;28;19932;-65
2021/08/21 13:44:57;;;;;;;;;;;;;;;;;;5029073;28;19933;-65
2021/08/21 13:47:24;;;;;;;;;;;;;;;;;;5029591;28;20428;-65
2021/08/21 13:49:51;;;;;;;;;;;;;;;;;;5030466;28;19935;-64
2021/08/21 13:52:18;;;;;;;;;;;;;;;;;;5028936;28;19929;-66
2021/08/21 13:54:45;;;;;;;;;;;;;;;;;;5030088;28;19929;-66
2021/08/21 13:57:12;;;;;;;;;;;;;;;;;;5023471;28;20400;-66
2021/08/21 13:59:39;;;;;;;;;;;;;;;;;;5022074;28;20293;-65
2021/08/21 14:02:06;;;;;;;;;;;;;;;;;;5026850;28;20015;-65
2021/08/21 14:04:33;;;;;;;;;;;;;;;;;;5027297;28;19925;-65
2021/08/21 14:07:00;;;;;;;;;;;;;;;;;;5024637;28;19931;-65
2021/08/21 14:09:27;;;;;;;;;;;;;;;;;;5026450;28;19925;-65
2021/08/21 14:11:54;;;;;;;;;;;;;;;;;;5027279;28;19929;-65
2021/08/21 14:14:23;;;;;;;;;;;;;;;;;;5026889;28;19925;-64
2021/08/21 14:16:51;;;;;;;;;;;;;;;;;;5032267;28;20020;-64
2021/08/21 14:19:17;;;;;;;;;;;;;;;;;;5026495;28;20346;-65
2021/08/21 14:21:46;;;;;;;;;;;;;;;;;;5023826;28;19933;-66
2021/08/21 14:24:12;;;;;;;;;;;;;;;;;;5026996;28;20406;-65
2021/08/21 14:26:39;;;;;;;;;;;;;;;;;;5027685;28;20306;-65
2021/08/21 14:29:06;;;;;;;;;;;;;;;;;;5026155;28;19925;-65
2021/08/21 14:31:33;;;;;;;;;;;;;;;;;;5027925;28;19999;-65
2021/08/21 14:34:00;;;;;;;;;;;;;;;;;;5026325;28;19925;-65
2021/08/21 14:36:28;;;;;;;;;;;;;;;;;;5024689;28;19932;-66
2021/08/21 14:38:55;;;;;;;;;;;;;;;;;;5025244;28;21167;-65
2021/08/21 14:41:22;;;;;;;;;;;;;;;;;;5027423;28;19962;-64
2021/08/21 14:43:49;;;;;;;;;;;;;;;;;;5029368;28;20535;-64
2021/08/21 14:46:16;;;;;;;;;;;;;;;;;;5026377;28;20372;-65
2021/08/21 14:48:43;;;;;;;;;;;;;;;;;;5029539;28;19936;-65
2021/08/21 14:51:10;;;;;;;;;;;;;;;;;;5026285;28;19929;-65
2021/08/21 14:53:37;;;;;;;;;;;;;;;;;;5030421;28;19932;-66
2021/08/21 14:56:04;;;;;;;;;;;;;;;;;;5028445;28;19931;-65
2021/08/21 14:58:31;;;;;;;;;;;;;;;;;;5028501;28;20003;-65
2021/08/21 15:00:58;;;;;;;;;;;;;;;;;;5027969;28;19925;-64
2021/08/21 15:03:25;;;;;;;;;;;;;;;;;;5025925;28;19932;-65
2021/08/21 15:05:52;;;;;;;;;;;;;;;;;;5026003;28;20407;-65
2021/08/21 15:08:19;;;;;;;;;;;;;;;;;;5026466;28;19935;-64
2021/08/21 15:10:46;;;;;;;;;;;;;;;;;;5024268;28;19935;-65
2021/08/21 15:13:13;;;;;;;;;;;;;;;;;;5028319;28;19929;-66
2021/08/21 15:15:39;;;;;;;;;;;;;;;;;;5025071;28;19995;-65
2021/08/21 15:18:06;;;;;;;;;;;;;;;;;;5022497;28;19925;-66
2021/08/21 15:20:33;;;;;;;;;;;;;;;;;;5023408;28;19925;-66
2021/08/21 15:23:00;;;;;;;;;;;;;;;;;;5028693;28;19939;-65
2021/08/21 15:25:27;;;;;;;;;;;;;;;;;;5027847;28;19925;-65
2021/08/21 15:27:54;;;;;;;;;;;;;;;;;;5025563;28;19960;-66
2021/08/21 15:30:21;;;;;;;;;;;;;;;;;;5024858;28;19925;-66
2021/08/21 15:32:48;;;;;;;;;;;;;;;;;;5026956;28;19925;-67
2021/08/21 15:35:15;;;;;;;;;;;;;;;;;;5016581;28;19986;-66
2021/08/21 15:37:42;;;;;;;;;;;;;;;;;;5017951;28;19940;-67
2021/08/21 15:40:09;;;;;;;;;;;;;;;;;;5019974;28;20352;-66
2021/08/21 15:42:36;;;;;;;;;;;;;;;;;;5047483;22;20395;-68
2021/08/21 15:45:03;;;;;;;;;;;;;;;;;;5041231;28;20392;-69
2021/08/21 15:47:30;;;;;;;;;;;;;;;;;;5042101;28;20003;-68
2021/08/21 15:49:57;;;;;;;;;;;;;;;;;;5043317;28;19964;-70
2021/08/21 15:52:24;;;;;;;;;;;;;;;;;;5039945;28;19932;-68
2021/08/21 15:54:51;;;;;;;;;;;;;;;;;;5040964;28;19929;-69
2021/08/21 15:57:18;;;;;;;;;;;;;;;;;;5045601;28;19931;-69
2021/08/21 15:59:45;;;;;;;;;;;;;;;;;;5044304;28;19932;-68
2021/08/21 16:02:12;;;;;;;;;;;;;;;;;;5045787;28;19939;-69
2021/08/21 16:04:39;;;;;;;;;;;;;;;;;;5040884;28;19929;-69
2021/08/21 16:07:06;;;;;;;;;;;;;;;;;;5044988;28;20020;-70
2021/08/21 16:09:33;;;;;;;;;;;;;;;;;;5046989;28;19935;-69
2021/08/21 16:12:00;;;;;;;;;;;;;;;;;;5041917;28;19929;-69
2021/08/21 16:14:27;;;;;;;;;;;;;;;;;;5046550;28;19925;-67
2021/08/21 16:16:54;;;;;;;;;;;;;;;;;;5057374;28;19928;-68
2021/08/21 16:19:21;;;;;;;;;;;;;;;;;;5052990;28;19929;-69
2021/08/21 16:21:48;;;;;;;;;;;;;;;;;;5047107;28;19925;-69
2021/08/21 16:24:15;;;;;;;;;;;;;;;;;;5046565;28;19947;-69
2021/08/21 16:26:42;;;;;;;;;;;;;;;;;;5046124;28;19928;-70
2021/08/21 16:29:09;;;;;;;;;;;;;;;;;;5047335;28;20299;-69
2021/08/21 16:31:36;;;;;;;;;;;;;;;;;;5043684;28;19929;-70
2021/08/21 16:34:03;;;;;;;;;;;;;;;;;;5043523;28;19933;-69
2021/08/21 16:36:30;;;;;;;;;;;;;;;;;;5042875;28;19929;-69
2021/08/21 16:38:57;;;;;;;;;;;;;;;;;;5046508;28;19931;-69
2021/08/21 16:41:24;;;;;;;;;;;;;;;;;;5042943;28;20179;-67
2021/08/21 16:43:51;;;;;;;;;;;;;;;;;;5043564;28;20280;-67